Главная страница
METAR-TAF:

METAR-TAF

Аэропорты :

Sindal, Дания

широта: 57-30N, долгота: 010-13E, высота над уровнем моря: 28 м

Текущие метеонаблюдения

Эта сводка был подготовлена 39 минут назад, в 09:50 UTC
Ветер 10 Узел от северно-северо-западный
Температура 7°C
Влажность 57%
Давление 1021 hPa
Видимость 10 км и более
Нет облачности ниже 1500 м, и нет кучево-дождевой облачности

METAR: EKSN 260950Z 34010KT CAVOK 07/M01 Q1021

Время: 11:29 (10:29 UTC)

Прогноз

Эта сводка был подготовлена 1 час и 29 минут назад, в 09:00 UTC
Прогноз действительный с 26-го 09 UTC до 26-го 15 UTC
Ветер 10 Узел от северный
Видимость 10 км и более
небольшая облачность на высоте 3000 фута

TAF: EKSN 260900Z 2609/2615 35010KT 9999 FEW030

Метеонаблюдения и прогнозы для более 4000 аэропортов (сводки METAR и TAF).

Имеющиеся станции представлены на карте желтыми и красными точками.

Чтобы увидеть название станции, наведите на нее мышь.

Затем щелкните, чтобы увидеть метеонаблюдения и метеопрогнозы.

Управление картой: чтобы увеличить масштаб, щелкните зеленые кнопки с черным крестиком; чтобы уменьшить масштаб, щелкните зеленую кнопку с тире; для просмотра соседних карт щелкайте зеленые стрелки.


METAR-TAF: